createdAt,value
2023-05-21T00:00:21.294Z,89.59
2023-05-21T00:05:24.204Z,88.58
2023-05-21T00:10:26.888Z,85.61
2023-05-21T00:15:29.112Z,82.76
2023-05-21T00:20:32.519Z,82.63
2023-05-21T00:25:35.134Z,88.65
2023-05-21T00:30:37.593Z,90.03
2023-05-21T00:35:40.272Z,92.53
2023-05-21T00:40:42.764Z,88.27
2023-05-21T00:45:46.891Z,89.66
2023-05-21T00:50:49.738Z,93.57
2023-05-21T00:55:51.998Z,97.26
2023-05-21T01:00:58.248Z,92.07
2023-05-21T01:06:00.482Z,88.07
2023-05-21T01:11:06.279Z,86.72
2023-05-21T01:16:11.164Z,86.31
2023-05-21T01:21:17.531Z,87.39
2023-05-21T01:26:19.752Z,91.58
2023-05-21T01:31:50.446Z,91.19
2023-05-21T01:37:14.884Z,91.82
2023-05-21T01:42:23.069Z,97.91
2023-05-21T01:47:29.984Z,97.64
2023-05-21T01:52:32.150Z,99.82
2023-05-21T01:57:34.274Z,99.54
2023-05-21T02:02:36.799Z,98.37
2023-05-21T02:07:40.517Z,94.93
2023-05-21T02:12:43.493Z,94.49
2023-05-21T02:17:52.903Z,96.43
2023-05-21T02:22:55.181Z,97.24
2023-05-21T02:27:57.336Z,96.33
2023-05-21T02:32:59.493Z,96.15
2023-05-21T02:38:03.235Z,95.54
2023-05-21T02:43:06.350Z,98.70
2023-05-21T02:48:09.443Z,97.88
2023-05-21T02:53:16.663Z,95.30
2023-05-21T02:58:18.977Z,98.37
2023-05-21T03:03:21.297Z,98.68
2023-05-21T03:08:24.930Z,94.70
2023-05-21T03:13:27.558Z,99.15
2023-05-21T03:18:29.777Z,100.00
2023-05-21T03:23:32.197Z,100.00
2023-05-21T03:28:35.745Z,100.00
2023-05-21T03:33:38.054Z,100.00
2023-05-21T03:38:53.280Z,100.00
2023-05-21T03:43:56.109Z,100.00
2023-05-21T03:49:02.783Z,97.04
2023-05-21T03:54:07.427Z,95.60
2023-05-21T03:59:12.189Z,94.62
2023-05-21T04:04:15.016Z,94.58
2023-05-21T04:09:17.437Z,98.29
2023-05-21T04:14:19.643Z,96.22
2023-05-21T04:19:22.082Z,96.10
2023-05-21T04:24:26.030Z,95.19
2023-05-21T04:29:54.937Z,97.21
2023-05-21T04:35:01.254Z,100.00
2023-05-21T04:40:04.121Z,100.00
2023-05-21T04:45:07.419Z,98.13
2023-05-21T04:50:12.857Z,93.86
2023-05-21T04:55:15.184Z,94.66
2023-05-21T05:00:17.757Z,93.37
2023-05-21T05:05:21.198Z,98.84
2023-05-21T05:10:23.487Z,99.49
2023-05-21T05:15:27.590Z,96.41
2023-05-21T05:20:29.844Z,92.85
2023-05-21T05:25:31.977Z,90.27
2023-05-21T05:30:35.763Z,88.67
2023-05-21T05:35:49.630Z,92.68
2023-05-21T05:40:52.339Z,92.78
2023-05-21T05:45:54.588Z,92.28
2023-05-21T05:50:57.328Z,92.67
2023-05-21T05:56:01.392Z,91.22
2023-05-21T06:01:06.266Z,90.03
2023-05-21T06:06:08.771Z,87.67
2023-05-21T06:11:11.689Z,85.19
2023-05-21T06:16:14.264Z,84.48
2023-05-21T06:21:17.022Z,82.88
2023-05-21T06:26:20.588Z,82.44
2023-05-21T06:31:24.827Z,83.20
2023-05-21T06:36:30.221Z,84.08
2023-05-21T06:41:33.189Z,81.55
2023-05-21T06:46:39.221Z,79.59
2023-05-21T06:51:43.894Z,78.50
2023-05-21T06:56:48.028Z,77.87
2023-05-21T07:01:51.069Z,76.44
2023-05-21T07:06:53.750Z,75.19
2023-05-21T07:11:56.111Z,75.39
2023-05-21T07:16:58.640Z,73.27
2023-05-21T07:22:00.938Z,71.44
2023-05-21T07:27:11.285Z,71.52
2023-05-21T07:32:20.658Z,70.10
2023-05-21T07:37:23.760Z,67.49
2023-05-21T07:42:27.064Z,66.04
2023-05-21T07:47:31.624Z,64.40
2023-05-21T07:52:35.010Z,63.50
2023-05-21T07:57:37.555Z,62.77
2023-05-21T08:02:44.412Z,62.74
2023-05-21T08:07:49.149Z,59.24
2023-05-21T08:12:51.418Z,57.87
2023-05-21T08:17:54.781Z,57.33
2023-05-21T08:22:57.504Z,56.75
2023-05-21T08:27:59.921Z,54.24
2023-05-21T08:33:03.377Z,53.18
2023-05-21T08:38:08.657Z,53.58
2023-05-21T08:43:21.204Z,52.30
2023-05-21T08:48:24.790Z,50.56
2023-05-21T08:53:30.215Z,50.07
2023-05-21T08:58:34.476Z,49.36
2023-05-21T09:03:40.986Z,48.42
2023-05-21T09:08:49.863Z,48.11
2023-05-21T09:14:00.854Z,50.00
2023-05-21T09:19:20.312Z,48.43
2023-05-21T09:24:25.668Z,49.95
2023-05-21T09:29:29.966Z,51.26
2023-05-21T09:34:32.181Z,50.08
2023-05-21T09:39:36.381Z,51.65
2023-05-21T09:44:43.444Z,49.59
2023-05-21T09:49:46.430Z,50.69
2023-05-21T09:54:48.547Z,48.25
2023-05-21T09:59:51.352Z,47.36
2023-05-21T10:04:57.298Z,48.46
2023-05-21T10:10:01.371Z,47.76
2023-05-21T10:15:13.945Z,48.21
2023-05-21T10:20:17.756Z,48.43
2023-05-21T10:25:22.782Z,47.51
2023-05-21T10:30:25.875Z,50.36
2023-05-21T10:35:29.081Z,51.49
2023-05-21T10:40:31.660Z,51.54
2023-05-21T10:46:13.814Z,52.14
2023-05-21T10:51:25.867Z,50.82
2023-05-21T10:56:45.164Z,51.60
2023-05-21T11:01:55.477Z,52.18
2023-05-21T11:06:59.469Z,48.64
2023-05-21T11:12:03.247Z,50.31
2023-05-21T11:17:17.050Z,50.80
2023-05-21T11:22:28.148Z,49.16
2023-05-21T11:27:42.934Z,49.26
2023-05-21T11:33:23.940Z,50.00
2023-05-21T11:38:31.837Z,51.57
2023-05-21T11:43:34.134Z,49.48
2023-05-21T11:48:39.090Z,50.33
2023-05-21T11:53:44.317Z,52.05
2023-05-21T11:58:47.162Z,51.30
2023-05-21T12:03:49.393Z,52.10
2023-05-21T12:08:58.558Z,52.41
2023-05-21T12:14:01.386Z,52.70
2023-05-21T12:19:04.293Z,51.83
2023-05-21T12:24:06.925Z,52.89
2023-05-21T12:29:09.330Z,52.95
2023-05-21T12:34:11.535Z,51.69
2023-05-21T12:39:15.347Z,53.13
2023-05-21T12:44:17.685Z,52.39
2023-05-21T12:49:37.760Z,49.78
2023-05-21T12:54:44.121Z,52.38
2023-05-21T12:59:59.172Z,54.81
2023-05-21T13:05:06.826Z,51.69
2023-05-21T13:10:09.903Z,53.77
2023-05-21T13:15:12.633Z,54.73
2023-05-21T13:20:17.089Z,54.84
2023-05-21T13:25:25.249Z,53.48
2023-05-21T13:30:27.547Z,52.26
2023-05-21T13:35:34.719Z,45.21
2023-05-21T13:40:39.055Z,46.34
2023-05-21T13:45:41.473Z,50.82
2023-05-21T13:50:43.882Z,48.60
2023-05-21T13:55:46.382Z,48.97
2023-05-21T14:00:48.589Z,48.30
2023-05-21T14:05:53.804Z,45.70
2023-05-21T14:10:56.448Z,47.10
2023-05-21T14:15:58.771Z,48.30
2023-05-21T14:21:01.141Z,47.67
2023-05-21T14:26:03.467Z,49.10
2023-05-21T14:31:06.990Z,50.84
2023-05-21T14:36:09.237Z,50.44
2023-05-21T14:41:11.586Z,44.33
2023-05-21T14:46:14.335Z,44.93
2023-05-21T14:51:16.774Z,44.13
2023-05-21T14:56:21.832Z,46.65
2023-05-21T15:01:24.391Z,49.83
2023-05-21T15:06:26.635Z,51.97
2023-05-21T15:11:28.844Z,51.39
2023-05-21T15:16:31.495Z,53.13
2023-05-21T15:21:33.735Z,50.50
2023-05-21T15:26:35.939Z,48.01
2023-05-21T15:31:39.692Z,49.98
2023-05-21T15:36:41.868Z,44.20
2023-05-21T15:41:44.628Z,44.34
2023-05-21T15:46:50.022Z,38.26
2023-05-21T15:51:52.242Z,41.13
2023-05-21T15:56:54.471Z,38.05
2023-05-21T16:01:56.886Z,43.41
2023-05-21T16:06:59.134Z,47.27
2023-05-21T16:12:01.662Z,46.68
2023-05-21T16:17:03.901Z,50.32
2023-05-21T16:22:07.123Z,44.87
2023-05-21T16:27:10.360Z,42.34
2023-05-21T16:32:14.303Z,44.08
2023-05-21T16:37:16.887Z,50.83
2023-05-21T16:42:19.372Z,52.54
2023-05-21T16:47:21.819Z,52.76
2023-05-21T16:52:24.505Z,53.20
2023-05-21T16:57:26.603Z,51.15
2023-05-21T17:02:28.842Z,54.29
2023-05-21T17:07:31.771Z,54.31
2023-05-21T17:12:33.989Z,55.37
2023-05-21T17:17:36.317Z,56.63
2023-05-21T17:22:38.578Z,56.34
2023-05-21T17:27:40.829Z,56.43
2023-05-21T17:32:43.302Z,56.79
2023-05-21T17:37:46.088Z,57.15
2023-05-21T17:42:48.758Z,56.59
2023-05-21T17:47:51.031Z,56.40
2023-05-21T17:52:53.334Z,56.08
2023-05-21T17:57:55.679Z,57.46
2023-05-21T18:02:58.854Z,58.22
2023-05-21T18:08:04.910Z,58.52
2023-05-21T18:13:07.270Z,58.63
2023-05-21T18:18:09.566Z,59.28
2023-05-21T18:23:12.409Z,59.75
2023-05-21T18:28:14.675Z,60.68
2023-05-21T18:33:17.270Z,61.01
2023-05-21T18:38:19.480Z,61.49
2023-05-21T18:43:21.672Z,62.22
2023-05-21T18:48:23.848Z,62.84
2023-05-21T18:53:26.026Z,63.06
2023-05-21T18:58:29.457Z,63.51
2023-05-21T19:03:32.309Z,63.81
2023-05-21T19:08:34.665Z,65.43
2023-05-21T19:13:36.801Z,64.69
2023-05-21T19:18:43.360Z,64.33
2023-05-21T19:23:53.400Z,64.79
2023-05-21T19:28:56.715Z,65.14
2023-05-21T19:33:58.956Z,67.51
2023-05-21T19:39:01.219Z,67.17
2023-05-21T19:44:03.508Z,67.76
2023-05-21T19:49:06.045Z,69.16
2023-05-21T19:54:08.192Z,70.39
2023-05-21T19:59:11.707Z,70.20
2023-05-21T20:04:14.462Z,70.66
2023-05-21T20:09:18.264Z,71.75
2023-05-21T20:14:20.531Z,72.33
2023-05-21T20:19:22.882Z,71.69
2023-05-21T20:24:25.130Z,71.98
2023-05-21T20:29:27.337Z,72.04
2023-05-21T20:34:29.912Z,73.13
2023-05-21T20:39:32.624Z,74.12
2023-05-21T20:44:34.830Z,76.24
2023-05-21T20:49:38.569Z,77.23
2023-05-21T20:54:40.755Z,77.07
2023-05-21T20:59:43.555Z,77.65
2023-05-21T21:04:50.020Z,77.25
2023-05-21T21:09:52.408Z,78.43
2023-05-21T21:14:55.559Z,80.05
2023-05-21T21:19:57.712Z,79.95
2023-05-21T21:25:00.226Z,79.71
2023-05-21T21:30:03.151Z,80.38
2023-05-21T21:35:06.198Z,80.70
2023-05-21T21:40:09.435Z,80.16
2023-05-21T21:45:11.976Z,80.76
2023-05-21T21:50:14.405Z,77.65
2023-05-21T21:55:16.746Z,76.49
2023-05-21T22:00:19.419Z,79.67
2023-05-21T22:05:21.738Z,79.91
2023-05-21T22:10:23.900Z,78.48
2023-05-21T22:15:28.852Z,76.86
2023-05-21T22:20:31.236Z,75.38
2023-05-21T22:25:33.384Z,80.43
2023-05-21T22:30:37.927Z,82.84
2023-05-21T22:35:40.251Z,83.20
2023-05-21T22:40:42.392Z,80.80
2023-05-21T22:45:44.911Z,78.93
2023-05-21T22:50:47.393Z,79.47
2023-05-21T22:55:52.499Z,83.98
2023-05-21T23:00:54.657Z,82.88
2023-05-21T23:05:56.816Z,81.45
2023-05-21T23:10:59.028Z,80.38
2023-05-21T23:16:01.424Z,79.97
2023-05-21T23:21:03.805Z,80.92
2023-05-21T23:26:06.065Z,82.37
2023-05-21T23:31:08.296Z,84.17
2023-05-21T23:36:10.537Z,82.36
2023-05-21T23:41:13.978Z,82.56
2023-05-21T23:46:16.472Z,81.79
2023-05-21T23:51:19.469Z,79.71
2023-05-21T23:56:21.613Z,78.96
